首页
METAR-TAF:

METAR-TAF

机场 :

Rawlins Municipal Airport (Harvey Field)

Rawlins, 怀俄明州, 美国

纬度: 41-48-20N, 经度: 107-11-59W, 海拔: 2077米

当前天气观测

该预报发布于1小时和19分钟前的23:53 UTC
风速19节,风向西南,有时为29节阵风
温度 28°C
湿度 19%
气压 1020 hPa
能見度: 16.1公里
天空无云

METAR: KRWL 122353Z AUTO 22019G29KT 10SM CLR 28/02 A3012 RMK AO2 PK WND 24035/2309 SLP092 T02830017 10317 20261 56002

时间: 19:12 (01:12 UTC)

预报

该预报发布于1小时和52分钟前的23:20 UTC
预报有效从13日的 00点(UTC)到 13日的 24点(UTC)
风速20节,风向西转西南,有时为30节阵风
能見度: 10公里
散云层高于15000英尺
附近有阵雨
从 13日的 0300点(UTC)
风速10节,风向西
能見度: 10公里
散云层高于20000英尺
从 13日的 1800点(UTC)
风速12节,风向西,有时为22节阵风
能見度: 10公里
散云层高于20000英尺

TAF: KRWL 122320Z 1300/1324 25020G30KT P6SM VCSH SCT150 FM130300 26010KT P6SM SCT200 FM131800 26012G22KT P6SM SCT200

超过4000个机场的气象观测和天气预报(METAR&TAF报告)。

可查询的气象台以黄色和红色小点在地图上表示。

将鼠标移到小点上方,可查看气象台名称。

然后点击查看天气观测和预报。

如需切换地图:点击带黑十字的绿色按钮放大地图;点击带横线的绿色按钮缩小地图;或者点击绿色箭头查看邻近地区的地图。


METAR-TAF: